Terminal Aerodrome Forecast
Issued by NWS Sterling, VA

Current Version | Previous Version | Graphics & Text | Print | Product List | Glossary On
Versions: 1 2 3 4 5 6 7 8 9 10 11 12 13 14 15 16 17 18 19 20 21
000
FTUS41 KLWX 221732
TAFDCA
TAF
KDCA 221732Z 2218/2318 22021G40KT 6SM -RA SCT060 BKN150
     FM221900 25015G34KT P6SM -SHRA SCT035 BKN060
     FM222100 28014G31KT P6SM SCT035 BKN060
     FM222300 29011G24KT P6SM SCT060
     FM230400 30010KT P6SM SCT250
     FM231500 27014G22KT P6SM BKN050=

USA.gov is the U.S. government's official web portal to all federal, state and local government web resources and services.